Time;durP1;ratioP1;P1;durP2;ratioP2;P2;SDS_P1;SDS_P2;PMS_P1;PMS_P2;Temp;Humidity;BMP_temperature;BMP_pressure;BME280_temperature;BME280_humidity;BME280_pressure;Samples;Min_cycle;Max_cycle;Signal;HPM_P1;HPM_P2
2023/10/31 00:01:44;;;;;;;1.60;0.60;;;12.40;92.30;;;;;;5093595;28;20435;-75
2023/10/31 00:04:12;;;;;;;3.03;0.90;;;12.40;92.20;;;;;;5093516;28;20486;-75
2023/10/31 00:06:39;;;;;;;2.30;0.70;;;12.40;92.10;;;;;;5093556;28;20467;-75
2023/10/31 00:09:06;;;;;;;1.80;0.60;;;12.30;92.50;;;;;;5093887;28;20467;-75
2023/10/31 00:11:33;;;;;;;1.80;0.80;;;12.30;93.00;;;;;;5093704;28;20463;-75
2023/10/31 00:14:00;;;;;;;1.93;0.80;;;12.30;93.20;;;;;;5092968;28;20524;-75
2023/10/31 00:16:27;;;;;;;2.20;0.70;;;12.30;93.50;;;;;;5094058;28;20443;-75
2023/10/31 00:18:54;;;;;;;1.70;0.60;;;12.30;93.20;;;;;;5094234;28;20463;-75
2023/10/31 00:21:22;;;;;;;1.77;0.70;;;12.30;92.60;;;;;;5094315;28;20463;-75
2023/10/31 00:23:50;;;;;;;1.70;0.60;;;12.20;92.20;;;;;;5093711;28;20475;-75
2023/10/31 00:26:17;;;;;;;3.60;0.80;;;12.20;92.20;;;;;;5093920;28;20940;-75
2023/10/31 00:28:44;;;;;;;1.80;0.60;;;12.20;92.00;;;;;;5093969;28;20489;-75
2023/10/31 00:31:11;;;;;;;1.70;0.60;;;12.20;92.10;;;;;;5093221;28;20485;-75
2023/10/31 00:33:38;;;;;;;1.70;0.63;;;12.10;92.70;;;;;;5093346;28;20450;-75
2023/10/31 00:36:06;;;;;;;1.70;0.60;;;12.10;92.20;;;;;;5093602;28;20467;-75
2023/10/31 00:38:34;;;;;;;1.80;0.70;;;12.10;92.20;;;;;;5092733;28;20848;-75
2023/10/31 00:41:01;;;;;;;1.80;0.70;;;12.00;91.80;;;;;;5093814;28;20471;-75
2023/10/31 00:43:28;;;;;;;1.70;0.60;;;12.00;92.10;;;;;;5093503;28;20897;-75
2023/10/31 00:45:55;;;;;;;1.80;0.70;;;11.90;91.70;;;;;;5093720;28;20439;-75
2023/10/31 00:48:22;;;;;;;2.83;0.50;;;11.80;91.80;;;;;;5093789;28;20463;-75
2023/10/31 00:50:49;;;;;;;2.28;0.70;;;11.80;91.90;;;;;;5093496;28;20466;-76
2023/10/31 00:53:16;;;;;;;2.08;0.93;;;11.80;90.80;;;;;;5093514;28;20197;-75
2023/10/31 00:55:45;;;;;;;2.70;1.52;;;11.70;91.00;;;;;;5093514;28;20240;-75
2023/10/31 00:58:12;;;;;;;2.50;1.35;;;11.80;91.60;;;;;;5093700;28;20246;-75
2023/10/31 01:00:39;;;;;;;2.10;0.90;;;11.70;91.10;;;;;;5093647;28;20193;-75
2023/10/31 01:03:06;;;;;;;1.80;0.70;;;11.70;91.00;;;;;;5093613;28;20221;-75
2023/10/31 01:05:33;;;;;;;2.50;0.70;;;11.70;90.60;;;;;;5093044;28;20229;-75
2023/10/31 01:07:59;;;;;;;1.90;0.63;;;11.60;90.60;;;;;;5093329;28;20554;-75
2023/10/31 01:10:26;;;;;;;1.80;0.60;;;11.50;90.80;;;;;;5093606;28;20435;-75
2023/10/31 01:12:55;;;;;;;1.70;0.60;;;11.50;91.00;;;;;;5092789;28;20218;-75
2023/10/31 01:15:21;;;;;;;1.70;0.60;;;11.50;90.90;;;;;;5093041;28;20248;-75
2023/10/31 01:17:48;;;;;;;1.70;0.65;;;11.40;90.70;;;;;;5093213;28;20186;-75
2023/10/31 01:20:15;;;;;;;1.90;0.70;;;11.40;90.70;;;;;;5092982;28;20256;-75
2023/10/31 01:22:41;;;;;;;1.67;0.50;;;11.40;90.90;;;;;;5093206;28;20193;-75
2023/10/31 01:25:09;;;;;;;1.85;0.60;;;11.30;91.30;;;;;;5093202;28;20189;-75
2023/10/31 01:27:37;;;;;;;1.75;0.63;;;11.30;91.60;;;;;;5093125;28;20220;-75
2023/10/31 01:30:07;;;;;;;1.80;0.60;;;11.40;91.50;;;;;;5093214;28;20185;-75
2023/10/31 01:32:34;;;;;;;1.70;0.60;;;11.40;91.50;;;;;;5093100;28;20656;-75
2023/10/31 01:35:01;;;;;;;3.13;0.60;;;11.40;91.20;;;;;;5093357;28;20503;-75
2023/10/31 01:37:28;;;;;;;2.00;0.80;;;11.30;91.30;;;;;;5093114;28;20435;-75
2023/10/31 01:39:55;;;;;;;1.70;0.60;;;11.30;91.40;;;;;;5093035;28;20274;-75
2023/10/31 01:42:24;;;;;;;2.40;0.60;;;11.30;91.90;;;;;;5092807;28;20603;-75
2023/10/31 01:44:51;;;;;;;1.70;0.60;;;11.30;92.30;;;;;;5097045;28;20201;-75
2023/10/31 01:47:19;;;;;;;1.90;0.70;;;11.40;92.70;;;;;;5096793;28;20229;-75
2023/10/31 01:49:46;;;;;;;1.95;0.70;;;11.40;92.80;;;;;;5096698;28;20181;-75
2023/10/31 01:52:13;;;;;;;2.10;0.75;;;11.40;93.10;;;;;;5097003;28;20282;-75
2023/10/31 01:54:40;;;;;;;1.90;0.80;;;11.50;92.80;;;;;;5096853;28;20217;-75
2023/10/31 01:57:07;;;;;;;1.83;0.65;;;11.50;92.80;;;;;;5096495;28;20197;-75
2023/10/31 01:59:34;;;;;;;1.80;0.60;;;11.50;92.80;;;;;;5095927;28;20185;-75
2023/10/31 02:02:02;;;;;;;2.78;1.00;;;11.40;93.30;;;;;;5096324;28;20278;-75
2023/10/31 02:04:30;;;;;;;1.77;0.75;;;11.40;93.50;;;;;;5096772;28;20193;-75
2023/10/31 02:06:57;;;;;;;1.80;0.60;;;11.40;93.70;;;;;;5096700;28;20247;-75
2023/10/31 02:09:26;;;;;;;1.70;0.60;;;11.40;93.90;;;;;;5096349;28;20279;-75
2023/10/31 02:11:53;;;;;;;1.75;0.60;;;11.40;94.00;;;;;;5096512;28;20193;-75
2023/10/31 02:14:22;;;;;;;1.75;0.60;;;11.40;94.20;;;;;;5096689;28;20633;-75
2023/10/31 02:16:49;;;;;;;2.17;0.70;;;11.40;94.30;;;;;;5096426;28;20596;-75
2023/10/31 02:19:20;;;;;;;2.90;0.60;;;11.40;94.50;;;;;;5095424;28;20217;-75
2023/10/31 02:21:48;;;;;;;1.80;0.60;;;11.40;94.50;;;;;;5096427;28;20242;-75
2023/10/31 02:24:15;;;;;;;2.00;0.80;;;11.40;94.60;;;;;;5096391;28;20435;-75
2023/10/31 02:26:42;;;;;;;3.30;0.60;;;11.40;94.70;;;;;;5096146;28;20190;-75
2023/10/31 02:29:09;;;;;;;2.85;1.00;;;11.40;94.80;;;;;;5095997;28;20217;-75
2023/10/31 02:31:36;;;;;;;2.00;0.80;;;11.40;94.90;;;;;;5094255;28;20274;-75
2023/10/31 02:34:03;;;;;;;1.90;0.80;;;11.50;95.20;;;;;;5095293;28;20185;-75
2023/10/31 02:36:30;;;;;;;2.13;0.65;;;11.50;95.30;;;;;;5095766;28;20497;-75
2023/10/31 02:38:58;;;;;;;1.80;0.60;;;11.50;95.50;;;;;;5096020;28;20194;-75
2023/10/31 02:41:25;;;;;;;2.13;0.90;;;11.50;95.70;;;;;;5095578;28;20197;-75
2023/10/31 02:43:55;;;;;;;2.03;1.05;;;11.50;95.90;;;;;;5095578;28;20248;-75
2023/10/31 02:46:22;;;;;;;2.67;1.10;;;11.50;95.80;;;;;;5095807;28;20639;-75
2023/10/31 02:48:49;;;;;;;4.13;1.20;;;11.50;95.80;;;;;;5095578;28;20177;-75
2023/10/31 02:51:15;;;;;;;2.77;1.13;;;11.60;95.80;;;;;;5095862;28;20197;-75
2023/10/31 02:53:43;;;;;;;2.92;1.30;;;11.60;95.80;;;;;;5095809;28;20436;-75
2023/10/31 02:56:11;;;;;;;2.80;1.42;;;11.50;95.80;;;;;;5093955;28;20290;-75
2023/10/31 02:58:38;;;;;;;2.22;1.10;;;11.50;95.80;;;;;;5095152;28;20228;-75
2023/10/31 03:01:05;;;;;;;2.43;0.97;;;11.50;95.90;;;;;;5095310;28;20682;-75
2023/10/31 03:03:37;;;;;;;1.83;0.70;;;11.50;96.10;;;;;;5095293;28;20471;-75
2023/10/31 03:06:06;;;;;;;2.45;1.00;;;11.60;96.30;;;;;;5095166;28;20424;-75
2023/10/31 03:08:33;;;;;;;2.23;0.77;;;11.60;96.30;;;;;;5095447;28;20280;-75
2023/10/31 03:11:00;;;;;;;1.80;0.60;;;11.60;96.50;;;;;;5095278;28;20435;-75
2023/10/31 03:13:28;;;;;;;2.00;0.90;;;11.60;96.20;;;;;;5095049;28;20472;-75
2023/10/31 03:15:58;;;;;;;3.42;1.42;;;11.60;95.90;;;;;;5094959;28;20620;-75
2023/10/31 03:18:25;;;;;;;6.38;3.22;;;11.60;95.70;;;;;;5094970;28;20232;-75
2023/10/31 03:20:51;;;;;;;4.60;2.20;;;11.60;94.60;;;;;;5095206;28;20253;-75
2023/10/31 03:23:18;;;;;;;3.42;1.83;;;11.60;94.30;;;;;;5094885;28;20475;-75
2023/10/31 03:25:48;;;;;;;3.57;1.53;;;11.60;94.40;;;;;;5094866;28;20275;-75
2023/10/31 03:28:27;;;;;;;2.10;1.20;;;11.60;94.70;;;;;;5095085;28;20431;-75
2023/10/31 03:30:54;;;;;;;2.00;1.10;;;11.60;95.00;;;;;;5094776;28;20265;-75
2023/10/31 03:33:21;;;;;;;1.90;0.82;;;11.60;94.90;;;;;;5094714;28;20470;-75
2023/10/31 03:35:48;;;;;;;1.70;0.70;;;11.60;94.50;;;;;;5093155;28;20294;-75
2023/10/31 03:38:15;;;;;;;1.80;0.73;;;11.60;94.30;;;;;;5094647;28;20444;-75
2023/10/31 03:40:42;;;;;;;2.38;0.80;;;11.50;94.10;;;;;;5074203;28;20236;-75
2023/10/31 03:43:09;;;;;;;1.70;0.60;;;11.50;94.20;;;;;;5074257;28;20648;-75
2023/10/31 03:45:37;;;;;;;5.50;1.00;;;11.60;94.00;;;;;;5084038;28;20493;-75
2023/10/31 03:48:05;;;;;;;2.27;1.00;;;11.60;93.90;;;;;;5094689;28;20468;-75
2023/10/31 03:50:32;;;;;;;2.40;1.10;;;11.50;93.40;;;;;;5094395;28;20463;-75
2023/10/31 03:52:59;;;;;;;1.70;0.57;;;11.50;93.10;;;;;;5094032;28;20483;-75
2023/10/31 03:55:26;;;;;;;2.00;0.87;;;11.50;92.60;;;;;;5093842;28;20499;-75
2023/10/31 03:57:53;;;;;;;1.80;0.80;;;11.50;92.60;;;;;;5094497;28;20524;-75
2023/10/31 04:00:20;;;;;;;2.63;1.00;;;11.50;91.40;;;;;;5094500;28;20593;-75
2023/10/31 04:02:48;;;;;;;2.63;1.10;;;11.40;90.60;;;;;;5094572;28;20228;-75
2023/10/31 04:05:15;;;;;;;2.53;0.85;;;11.30;90.80;;;;;;5094125;28;20225;-75
2023/10/31 04:07:43;;;;;;;2.93;1.20;;;11.30;91.10;;;;;;5094361;28;20221;-75
2023/10/31 04:10:10;;;;;;;1.90;0.70;;;11.30;91.40;;;;;;5093962;28;20439;-75
2023/10/31 04:12:37;;;;;;;3.15;0.80;;;11.20;92.00;;;;;;5093951;28;20227;-75
2023/10/31 04:15:05;;;;;;;1.80;0.60;;;11.20;91.80;;;;;;5093995;28;20237;-75
2023/10/31 04:17:32;;;;;;;2.17;0.87;;;11.20;92.00;;;;;;5093647;28;20847;-75
2023/10/31 04:20:00;;;;;;;2.35;0.80;;;11.20;92.10;;;;;;5093594;28;21010;-75
2023/10/31 04:22:27;;;;;;;2.30;0.83;;;11.20;92.50;;;;;;5093238;28;20190;-75
2023/10/31 04:24:54;;;;;;;2.00;0.90;;;11.20;91.90;;;;;;5093753;28;20478;-75
2023/10/31 04:27:21;;;;;;;1.95;0.60;;;11.10;91.90;;;;;;5094037;28;20189;-75
2023/10/31 04:29:48;;;;;;;1.80;0.70;;;11.10;91.90;;;;;;5094061;28;20221;-75
2023/10/31 04:32:15;;;;;;;2.08;0.70;;;11.10;92.10;;;;;;5093532;28;20210;-75
2023/10/31 04:34:42;;;;;;;2.23;0.80;;;11.10;92.40;;;;;;5093539;28;20232;-75
2023/10/31 04:37:10;;;;;;;3.03;0.70;;;11.10;92.80;;;;;;5093641;28;20423;-75
2023/10/31 04:39:37;;;;;;;3.15;1.10;;;11.10;93.00;;;;;;5093939;28;20511;-75
2023/10/31 04:42:04;;;;;;;2.22;1.10;;;11.10;91.70;;;;;;5093146;28;20317;-75
2023/10/31 04:44:31;;;;;;;2.00;0.82;;;11.20;91.60;;;;;;5093463;28;20284;-75
2023/10/31 04:46:58;;;;;;;2.08;0.80;;;11.20;91.40;;;;;;5093572;28;20229;-75
2023/10/31 04:49:25;;;;;;;2.05;0.75;;;11.20;90.50;;;;;;5093820;28;20190;-75
2023/10/31 04:51:52;;;;;;;2.13;0.80;;;11.10;90.60;;;;;;5093079;28;20217;-75
2023/10/31 04:54:20;;;;;;;2.63;0.82;;;11.10;91.00;;;;;;5093454;28;20197;-75
2023/10/31 04:56:48;;;;;;;3.35;0.68;;;11.10;91.20;;;;;;5093557;28;20270;-75
2023/10/31 04:59:15;;;;;;;3.58;0.80;;;11.10;91.10;;;;;;5093773;28;20270;-75
2023/10/31 05:01:42;;;;;;;1.73;0.60;;;11.10;91.50;;;;;;5093084;28;20236;-75
2023/10/31 05:04:09;;;;;;;2.25;0.65;;;11.10;91.60;;;;;;5093401;28;20244;-75
2023/10/31 05:06:36;;;;;;;2.00;0.80;;;11.00;91.40;;;;;;5093373;28;20233;-75
2023/10/31 05:09:03;;;;;;;1.70;0.60;;;11.00;91.10;;;;;;5093665;28;20221;-75
2023/10/31 05:11:31;;;;;;;2.20;0.90;;;11.10;91.10;;;;;;5093429;28;20620;-75
2023/10/31 05:13:58;;;;;;;1.80;0.70;;;11.00;90.70;;;;;;5093758;28;20588;-75
2023/10/31 05:16:25;;;;;;;3.00;1.38;;;10.90;90.70;;;;;;5093510;28;20232;-75
2023/10/31 05:18:52;;;;;;;3.20;0.80;;;10.90;90.70;;;;;;5095571;28;20185;-75
2023/10/31 05:21:21;;;;;;;1.80;0.80;;;10.90;91.10;;;;;;5097267;28;20278;-75
2023/10/31 05:23:48;;;;;;;3.05;1.08;;;10.90;91.50;;;;;;5097615;28;20200;-75
2023/10/31 05:26:15;;;;;;;2.13;0.77;;;10.90;91.90;;;;;;5097473;28;20247;-75
2023/10/31 05:28:43;;;;;;;1.88;0.70;;;10.90;92.50;;;;;;5097473;28;20193;-75
2023/10/31 05:31:11;;;;;;;1.90;0.80;;;10.90;93.20;;;;;;5096777;28;20639;-75
2023/10/31 05:33:38;;;;;;;2.30;0.90;;;11.00;93.40;;;;;;5096630;28;20208;-75
2023/10/31 05:36:05;;;;;;;3.35;0.90;;;11.00;93.30;;;;;;5096868;28;20209;-75
2023/10/31 05:38:32;;;;;;;3.63;0.82;;;11.00;92.60;;;;;;5097352;28;20270;-75
2023/10/31 05:40:59;;;;;;;1.80;0.70;;;11.00;92.50;;;;;;5096529;28;20709;-75
2023/10/31 05:43:26;;;;;;;1.95;0.82;;;11.00;92.50;;;;;;5096837;28;20228;-75
2023/10/31 05:45:55;;;;;;;3.72;1.60;;;11.00;92.40;;;;;;5097115;28;20194;-75
2023/10/31 05:48:22;;;;;;;3.25;1.60;;;11.00;92.10;;;;;;5096754;28;20185;-75
2023/10/31 05:50:48;;;;;;;3.33;1.70;;;11.00;92.20;;;;;;5096689;28;20431;-75
2023/10/31 05:53:15;;;;;;;5.85;1.60;;;11.00;92.40;;;;;;5096594;28;20225;-75
2023/10/31 05:55:42;;;;;;;3.15;1.70;;;11.00;92.20;;;;;;5096606;28;20245;-76
2023/10/31 05:58:09;;;;;;;2.70;1.08;;;11.00;92.10;;;;;;5093813;28;20190;-75
2023/10/31 06:00:38;;;;;;;2.35;1.05;;;11.00;92.40;;;;;;5096066;28;20591;-76
2023/10/31 06:03:06;;;;;;;1.90;1.00;;;11.00;92.60;;;;;;5095957;28;20247;-75
2023/10/31 06:05:33;;;;;;;2.35;0.88;;;11.00;92.70;;;;;;5095861;28;20243;-75
2023/10/31 06:08:00;;;;;;;5.30;0.80;;;11.00;92.40;;;;;;5095715;28;20189;-75
2023/10/31 06:10:27;;;;;;;2.30;1.63;;;11.00;92.30;;;;;;5095621;28;20186;-75
2023/10/31 06:12:54;;;;;;;2.40;0.90;;;11.00;92.40;;;;;;5095719;28;20247;-75
2023/10/31 06:15:21;;;;;;;2.00;0.80;;;11.00;92.30;;;;;;5095667;28;20217;-76
2023/10/31 06:17:48;;;;;;;4.22;0.90;;;11.00;92.20;;;;;;5095773;28;20280;-75
2023/10/31 06:20:17;;;;;;;1.90;0.70;;;11.00;91.90;;;;;;5095561;28;20606;-75
2023/10/31 06:22:44;;;;;;;2.00;0.70;;;11.10;92.10;;;;;;5095915;28;20220;-75
2023/10/31 06:25:14;;;;;;;3.75;0.77;;;11.10;92.20;;;;;;5095721;28;20527;-75
2023/10/31 06:27:41;;;;;;;2.53;0.97;;;11.10;91.90;;;;;;5095357;28;20201;-75
2023/10/31 06:30:09;;;;;;;1.90;0.70;;;11.10;91.50;;;;;;5090637;28;20464;-75
2023/10/31 06:32:36;;;;;;;2.40;0.80;;;11.10;91.30;;;;;;5095268;28;20258;-76
2023/10/31 06:35:03;;;;;;;1.80;0.70;;;11.10;91.10;;;;;;5094595;28;20204;-76
2023/10/31 06:37:32;;;;;;;2.10;1.00;;;11.20;90.70;;;;;;5094052;28;20217;-75
2023/10/31 06:39:58;;;;;;;2.55;1.10;;;11.20;90.00;;;;;;5094164;28;20247;-75
2023/10/31 06:42:25;;;;;;;1.92;0.70;;;11.20;89.40;;;;;;5094937;28;20193;-75
2023/10/31 06:44:53;;;;;;;3.10;1.15;;;11.20;89.50;;;;;;5094859;28;20189;-75
2023/10/31 06:47:20;;;;;;;3.63;0.90;;;11.20;89.30;;;;;;5094759;28;20280;-75
2023/10/31 06:49:47;;;;;;;3.50;1.45;;;11.30;89.80;;;;;;5091097;28;20459;-76
2023/10/31 06:52:14;;;;;;;1.80;0.63;;;11.30;89.60;;;;;;5093433;28;20217;-75
2023/10/31 06:54:42;;;;;;;2.30;1.00;;;11.30;88.80;;;;;;5094313;28;20432;-75
2023/10/31 06:57:09;;;;;;;2.08;0.70;;;11.30;88.50;;;;;;5093707;28;20330;-76
2023/10/31 06:59:36;;;;;;;2.30;0.70;;;11.30;88.60;;;;;;5091238;28;20547;-75
2023/10/31 07:02:04;;;;;;;3.60;1.08;;;11.40;87.70;;;;;;5094100;28;20431;-75
2023/10/31 07:04:33;;;;;;;2.45;1.23;;;11.40;86.60;;;;;;5094173;28;20523;-75
2023/10/31 07:07:00;;;;;;;5.18;0.93;;;11.40;85.80;;;;;;5094154;28;20196;-75
2023/10/31 07:09:27;;;;;;;2.03;0.85;;;11.40;85.60;;;;;;5091272;28;20209;-75
2023/10/31 07:11:56;;;;;;;1.90;0.80;;;11.40;85.80;;;;;;5094068;28;20504;-75
2023/10/31 07:14:23;;;;;;;4.90;1.00;;;11.40;85.50;;;;;;5094193;28;20979;-75
2023/10/31 07:16:50;;;;;;;1.93;0.70;;;11.40;84.90;;;;;;5093432;28;20521;-75
2023/10/31 07:19:17;;;;;;;2.88;0.93;;;11.50;84.80;;;;;;5093314;28;20479;-76
2023/10/31 07:21:44;;;;;;;3.10;0.80;;;11.50;84.30;;;;;;5094198;28;20174;-75
2023/10/31 07:24:11;;;;;;;1.80;0.70;;;11.60;83.60;;;;;;5075706;28;20222;-76
2023/10/31 07:26:38;;;;;;;3.30;0.93;;;11.70;82.60;;;;;;5089366;28;20436;-75
2023/10/31 07:29:06;;;;;;;9.98;1.15;;;11.70;80.50;;;;;;5093880;28;20432;-76
2023/10/31 07:31:38;;;;;;;4.60;0.70;;;11.80;80.70;;;;;;5094024;28;20193;-75
2023/10/31 07:34:05;;;;;;;2.00;0.80;;;11.70;79.60;;;;;;5091905;28;20989;-75
2023/10/31 07:36:34;;;;;;;3.83;1.03;;;11.70;78.50;;;;;;5091685;28;20973;-75
2023/10/31 07:39:01;;;;;;;4.57;1.00;;;11.80;78.90;;;;;;5093427;28;20513;-75
2023/10/31 07:41:29;;;;;;;2.27;0.80;;;11.90;79.40;;;;;;5093493;28;20436;-75
2023/10/31 07:43:56;;;;;;;2.60;0.80;;;11.90;79.00;;;;;;5093139;28;20855;-75
2023/10/31 07:46:24;;;;;;;2.73;0.90;;;12.00;78.10;;;;;;5093133;28;20970;-75
2023/10/31 07:48:51;;;;;;;2.30;1.20;;;12.00;77.90;;;;;;5094373;28;20436;-75
2023/10/31 07:51:18;;;;;;;3.37;0.80;;;12.00;77.50;;;;;;5093169;28;20475;-75
2023/10/31 07:53:46;;;;;;;2.33;1.00;;;12.00;77.40;;;;;;5094295;28;20432;-75
2023/10/31 07:56:17;;;;;;;2.47;0.97;;;12.00;77.80;;;;;;5093954;28;20463;-75
2023/10/31 07:58:44;;;;;;;2.30;0.90;;;12.00;75.80;;;;;;5094122;28;20428;-75
2023/10/31 08:01:11;;;;;;;3.60;1.10;;;12.00;76.40;;;;;;5090409;28;20447;-75
2023/10/31 08:03:39;;;;;;;1.90;0.73;;;12.00;75.20;;;;;;5071697;28;20919;-75
2023/10/31 08:06:08;;;;;;;2.10;0.80;;;12.00;75.40;;;;;;5073810;28;20428;-76
2023/10/31 08:08:35;;;;;;;2.30;0.87;;;12.00;76.70;;;;;;5073278;28;20511;-75
2023/10/31 08:11:05;;;;;;;3.10;0.97;;;12.00;76.40;;;;;;5072647;28;20432;-75
2023/10/31 08:13:32;;;;;;;1.90;0.90;;;12.00;75.70;;;;;;5073628;28;20437;-75
2023/10/31 08:15:59;;;;;;;2.40;1.10;;;12.00;74.30;;;;;;5073657;28;20428;-75
2023/10/31 08:18:26;;;;;;;2.67;1.00;;;12.00;75.00;;;;;;5073427;28;20437;-76
2023/10/31 08:20:55;;;;;;;2.90;1.50;;;12.00;75.50;;;;;;5073124;28;20514;-76
2023/10/31 08:23:29;;;;;;;2.47;1.10;;;12.10;74.50;;;;;;5073586;28;20768;-75
2023/10/31 08:25:56;;;;;;;2.63;0.90;;;12.10;73.90;;;;;;5073216;28;20420;-75
2023/10/31 08:28:24;;;;;;;6.30;1.30;;;12.20;74.80;;;;;;5073486;28;20433;-75
2023/10/31 08:30:51;;;;;;;9.33;1.27;;;12.30;73.70;;;;;;5073129;28;20796;-75
2023/10/31 08:33:18;;;;;;;2.77;1.00;;;12.40;73.60;;;;;;5073430;28;20766;-75
2023/10/31 08:35:45;;;;;;;7.30;1.20;;;12.50;73.50;;;;;;5073538;28;20433;-75
2023/10/31 08:38:13;;;;;;;4.60;1.03;;;12.50;73.00;;;;;;5072994;28;20549;-75
2023/10/31 08:40:40;;;;;;;5.63;1.00;;;12.50;71.80;;;;;;5073013;28;20436;-75
2023/10/31 08:43:07;;;;;;;3.23;1.10;;;12.50;72.40;;;;;;5073264;28;20497;-75
2023/10/31 08:45:34;;;;;;;2.80;1.23;;;12.50;73.30;;;;;;5073282;28;20835;-75
2023/10/31 08:48:01;;;;;;;2.80;0.87;;;12.50;71.10;;;;;;5073042;28;20919;-75
2023/10/31 08:50:28;;;;;;;3.40;1.13;;;12.50;70.80;;;;;;5072757;28;20431;-75
2023/10/31 08:52:55;;;;;;;2.40;0.70;;;12.50;71.30;;;;;;5072161;28;20443;-75
2023/10/31 08:55:24;;;;;;;2.17;0.70;;;12.50;71.70;;;;;;5072832;28;20494;-75
2023/10/31 08:57:52;;;;;;;2.70;1.20;;;12.50;72.20;;;;;;5072599;28;20472;-75
2023/10/31 09:00:19;;;;;;;5.37;1.17;;;12.60;71.50;;;;;;5073197;28;20448;-75
2023/10/31 09:02:47;;;;;;;5.20;1.63;;;12.60;71.90;;;;;;5072809;28;20515;-75
2023/10/31 09:05:14;;;;;;;3.10;0.73;;;12.60;72.30;;;;;;5072609;28;20424;-75
2023/10/31 09:07:41;;;;;;;5.60;1.07;;;12.60;71.70;;;;;;5086689;28;20493;-75
2023/10/31 09:10:09;;;;;;;3.37;0.83;;;12.70;70.00;;;;;;5093313;28;20523;-76
2023/10/31 09:12:37;;;;;;;3.40;1.07;;;12.70;70.60;;;;;;5092910;28;20515;-75
2023/10/31 09:15:05;;;;;;;3.57;1.00;;;12.70;70.00;;;;;;5093266;28;20459;-75
2023/10/31 09:17:32;;;;;;;2.40;1.00;;;12.70;69.60;;;;;;5093062;28;20518;-75
2023/10/31 09:19:59;;;;;;;2.40;1.00;;;12.70;69.90;;;;;;5093119;28;20475;-75
2023/10/31 09:22:26;;;;;;;4.33;0.90;;;12.70;70.70;;;;;;5092812;28;20431;-75
2023/10/31 09:24:53;;;;;;;3.03;0.80;;;12.80;70.30;;;;;;5093334;28;20620;-76
2023/10/31 09:27:20;;;;;;;1.70;0.60;;;12.80;69.30;;;;;;5093148;28;20439;-75
2023/10/31 09:29:49;;;;;;;3.07;1.10;;;12.80;70.20;;;;;;5093190;28;20461;-75
2023/10/31 09:32:17;;;;;;;3.90;1.43;;;12.80;71.90;;;;;;5093232;28;20473;-75
2023/10/31 09:34:44;;;;;;;3.77;1.27;;;12.90;71.10;;;;;;5093185;28;20470;-75
2023/10/31 09:37:11;;;;;;;3.00;1.17;;;12.90;69.50;;;;;;5092643;28;20479;-75
2023/10/31 09:39:39;;;;;;;3.97;1.50;;;12.90;69.20;;;;;;5093137;28;20428;-75
2023/10/31 09:42:07;;;;;;;4.93;1.77;;;13.00;69.10;;;;;;5092954;28;20511;-75
2023/10/31 09:44:34;;;;;;;4.70;1.00;;;13.00;67.00;;;;;;5092737;28;20925;-75
2023/10/31 09:47:03;;;;;;;5.50;1.63;;;13.10;67.20;;;;;;5092988;28;20508;-75
2023/10/31 09:49:31;;;;;;;2.83;0.80;;;13.10;67.30;;;;;;5092633;28;20432;-75
2023/10/31 09:51:58;;;;;;;2.87;0.90;;;13.10;67.90;;;;;;5092590;28;20956;-75
2023/10/31 09:54:27;;;;;;;4.63;1.27;;;13.10;68.10;;;;;;5093028;28;20431;-75
2023/10/31 09:56:54;;;;;;;2.07;0.90;;;13.10;68.90;;;;;;5092455;28;20467;-75
2023/10/31 09:59:21;;;;;;;3.00;1.03;;;13.10;69.10;;;;;;5092512;28;20440;-75
2023/10/31 10:01:48;;;;;;;3.10;1.00;;;13.20;67.70;;;;;;5092565;28;20941;-75
2023/10/31 10:04:18;;;;;;;5.20;1.60;;;13.20;67.80;;;;;;5094196;28;20424;-75
2023/10/31 10:06:52;;;;;;;5.30;1.60;;;13.30;67.90;;;;;;5096493;28;20484;-75
2023/10/31 10:09:22;;;;;;;2.63;1.00;;;13.30;67.50;;;;;;5096075;28;20463;-76
2023/10/31 10:11:49;;;;;;;3.93;1.20;;;13.40;67.70;;;;;;5096001;28;20431;-75
2023/10/31 10:14:17;;;;;;;2.60;1.27;;;13.50;66.50;;;;;;5095763;28;20883;-75
2023/10/31 10:16:44;;;;;;;2.43;1.20;;;13.50;67.50;;;;;;5095855;28;20922;-75
2023/10/31 10:19:20;;;;;;;3.10;1.00;;;13.70;66.80;;;;;;5096051;28;20431;-75
2023/10/31 10:21:48;;;;;;;3.77;1.70;;;13.80;64.50;;;;;;5096192;28;20426;-75
2023/10/31 10:24:15;;;;;;;2.30;1.00;;;13.90;63.20;;;;;;5096200;28;20449;-75
2023/10/31 10:26:42;;;;;;;2.80;1.30;;;14.00;64.80;;;;;;5095999;28;20508;-75
2023/10/31 10:29:09;;;;;;;3.50;0.70;;;14.10;64.90;;;;;;5096075;28;20451;-75
2023/10/31 10:31:36;;;;;;;3.30;0.93;;;14.30;64.70;;;;;;5095995;28;20501;-75
2023/10/31 10:34:03;;;;;;;2.50;1.10;;;14.50;62.60;;;;;;5095839;28;20435;-75
2023/10/31 10:36:33;;;;;;;3.50;0.90;;;14.60;61.20;;;;;;5095955;28;20489;-75
2023/10/31 10:39:01;;;;;;;2.50;1.03;;;14.80;62.10;;;;;;5095805;28;20506;-76
2023/10/31 10:41:29;;;;;;;2.80;0.87;;;14.90;60.60;;;;;;5095478;28;20496;-76
2023/10/31 10:43:58;;;;;;;3.70;1.07;;;14.80;60.00;;;;;;5095476;28;20463;-75
2023/10/31 10:46:26;;;;;;;2.73;0.87;;;14.80;59.50;;;;;;5095357;28;20794;-75
2023/10/31 10:48:57;;;;;;;2.63;1.00;;;14.70;59.60;;;;;;5095392;28;20479;-75
2023/10/31 10:51:30;;;;;;;7.10;0.90;;;14.80;60.00;;;;;;5095633;28;20463;-75
2023/10/31 10:54:05;;;;;;;2.47;0.70;;;14.80;60.30;;;;;;5095592;28;20423;-75
2023/10/31 10:56:39;;;;;;;2.03;0.80;;;14.70;60.60;;;;;;5095499;28;20416;-75
2023/10/31 10:59:15;;;;;;;2.50;0.90;;;14.70;61.30;;;;;;5095090;28;20463;-75
2023/10/31 11:01:43;;;;;;;2.10;0.70;;;14.70;61.10;;;;;;5095205;28;20419;-75
2023/10/31 11:04:11;;;;;;;1.90;0.50;;;14.70;60.80;;;;;;5095254;28;20467;-76
2023/10/31 11:06:39;;;;;;;1.90;0.67;;;14.70;60.90;;;;;;5094975;28;20917;-75
2023/10/31 11:09:07;;;;;;;1.90;0.90;;;14.60;61.40;;;;;;5092399;28;20471;-75
2023/10/31 11:11:34;;;;;;;1.90;0.50;;;14.60;62.40;;;;;;5094980;28;20432;-75
2023/10/31 11:14:02;;;;;;;1.70;0.70;;;14.50;61.50;;;;;;5095230;28;20471;-75
2023/10/31 11:16:35;;;;;;;1.90;0.70;;;14.50;61.60;;;;;;5094576;28;20435;-75
2023/10/31 11:19:02;;;;;;;2.10;0.80;;;14.50;62.40;;;;;;5094504;28;20474;-75
2023/10/31 11:21:53;;;;;;;1.80;0.60;;;14.50;63.00;;;;;;5095299;28;20928;-75
2023/10/31 11:24:22;;;;;;;1.97;0.60;;;14.50;62.60;;;;;;5094718;28;20446;-75
2023/10/31 11:27:02;;;;;;;2.00;0.80;;;14.60;63.60;;;;;;5094899;28;20432;-75
2023/10/31 11:29:29;;;;;;;4.00;0.80;;;14.70;63.20;;;;;;5091926;28;20423;-76
2023/10/31 11:31:59;;;;;;;2.03;0.70;;;14.90;62.70;;;;;;5094923;28;20836;-75
2023/10/31 11:34:29;;;;;;;2.60;0.97;;;15.00;62.40;;;;;;5094520;28;20887;-76
2023/10/31 11:37:26;;;;;;;3.80;0.73;;;15.10;61.60;;;;;;5092172;28;20442;-76
2023/10/31 11:40:21;;;;;;;2.73;0.80;;;15.20;61.30;;;;;;5074076;28;20456;-75
2023/10/31 11:42:50;;;;;;;2.00;0.70;;;15.40;61.60;;;;;;5080239;28;20466;-75
2023/10/31 11:45:28;;;;;;;2.00;0.70;;;15.60;60.50;;;;;;5093786;28;20522;-75
2023/10/31 11:47:56;;;;;;;1.80;0.60;;;15.80;59.50;;;;;;5090944;28;20440;-75
2023/10/31 11:50:23;;;;;;;1.80;0.60;;;15.80;59.20;;;;;;5094162;28;20853;-76
2023/10/31 11:53:05;;;;;;;4.73;1.00;;;15.80;59.60;;;;;;5092734;28;20492;-75
2023/10/31 11:55:37;;;;;;;2.10;0.80;;;15.80;59.80;;;;;;5094288;28;20430;-75
2023/10/31 11:58:15;;;;;;;2.17;0.80;;;16.00;59.10;;;;;;5093072;28;20517;-76
2023/10/31 12:00:42;;;;;;;1.90;0.60;;;16.20;58.10;;;;;;5094127;28;20475;-75
2023/10/31 12:03:09;;;;;;;1.90;0.60;;;16.20;58.60;;;;;;5090104;28;20440;-75
2023/10/31 12:05:36;;;;;;;1.90;0.70;;;16.20;57.80;;;;;;5093864;28;20829;-75
2023/10/31 12:08:03;;;;;;;2.63;0.90;;;16.20;57.80;;;;;;5093084;28;20476;-76
2023/10/31 12:10:31;;;;;;;2.90;0.70;;;16.30;58.00;;;;;;5092941;28;20432;-76
2023/10/31 12:12:59;;;;;;;1.80;0.60;;;16.40;58.20;;;;;;5093691;28;20459;-76
2023/10/31 12:15:26;;;;;;;2.40;0.90;;;16.60;57.80;;;;;;5093442;28;20443;-75
2023/10/31 12:17:58;;;;;;;3.33;1.00;;;16.80;56.50;;;;;;5090740;28;20520;-76
2023/10/31 12:20:25;;;;;;;3.23;0.87;;;17.00;56.00;;;;;;5091259;28;20556;-76
2023/10/31 12:23:03;;;;;;;3.27;0.80;;;17.20;55.10;;;;;;5086934;28;20515;-76
2023/10/31 12:25:32;;;;;;;2.27;0.83;;;17.20;54.80;;;;;;5085065;28;20503;-76
2023/10/31 12:28:01;;;;;;;2.20;0.97;;;17.20;55.50;;;;;;5092867;28;20466;-75
2023/10/31 12:30:27;;;;;;;2.77;0.60;;;17.10;56.10;;;;;;5093543;28;20467;-76
2023/10/31 12:32:56;;;;;;;2.77;0.60;;;17.00;56.70;;;;;;5093503;28;20432;-75
2023/10/31 12:35:25;;;;;;;3.33;0.70;;;17.00;56.00;;;;;;5093780;28;20835;-75
2023/10/31 12:37:53;;;;;;;2.27;0.70;;;16.90;55.00;;;;;;5093634;28;20483;-76
2023/10/31 12:40:21;;;;;;;3.63;1.10;;;16.80;54.50;;;;;;5093367;28;20440;-75
2023/10/31 12:42:49;;;;;;;2.33;0.60;;;16.70;54.30;;;;;;5093794;28;20467;-76
2023/10/31 12:45:19;;;;;;;2.10;0.70;;;16.60;54.80;;;;;;5093392;28;20910;-75
2023/10/31 12:47:46;;;;;;;1.90;0.60;;;16.40;54.70;;;;;;5093665;28;20468;-75
2023/10/31 12:50:15;;;;;;;2.50;0.73;;;16.20;54.60;;;;;;5093288;28;20461;-75
2023/10/31 12:52:49;;;;;;;3.80;0.90;;;16.00;55.20;;;;;;5093502;28;20475;-75